createdAt,value
2017-12-06T00:01:04.402Z,88.67
2017-12-06T00:02:31.681Z,88.63
2017-12-06T00:04:02.877Z,88.81
2017-12-06T00:05:26.040Z,89.03
2017-12-06T00:06:53.375Z,89.14
2017-12-06T00:08:20.666Z,89.29
2017-12-06T00:09:52.033Z,89.63
2017-12-06T00:11:15.438Z,89.53
2017-12-06T00:12:46.540Z,89.43
2017-12-06T00:14:09.784Z,89.52
2017-12-06T00:15:37.260Z,89.56
2017-12-06T00:17:04.385Z,89.26
2017-12-06T00:18:31.754Z,89.28
2017-12-06T00:19:58.956Z,89.40
2017-12-06T00:21:26.200Z,89.43
2017-12-06T00:22:57.401Z,89.14
2017-12-06T00:24:20.842Z,89.39
2017-12-06T00:25:48.221Z,89.09
2017-12-06T00:27:15.425Z,89.30
2017-12-06T00:28:42.627Z,89.21
2017-12-06T00:30:13.854Z,89.06
2017-12-06T00:31:37.160Z,89.03
2017-12-06T00:33:08.338Z,89.23
2017-12-06T00:34:31.580Z,88.90
2017-12-06T00:35:58.813Z,88.80
2017-12-06T00:37:30.197Z,88.94
2017-12-06T00:38:57.469Z,88.89
2017-12-06T00:40:24.602Z,88.97
2017-12-06T00:41:47.989Z,88.69
2017-12-06T00:43:15.384Z,88.34
2017-12-06T00:44:42.784Z,88.25
2017-12-06T00:46:13.973Z,88.50
2017-12-06T00:47:37.240Z,88.30
2017-12-06T00:49:04.603Z,88.09
2017-12-06T00:50:35.927Z,87.97
2017-12-06T00:52:03.132Z,87.63
2017-12-06T00:53:26.301Z,87.64
2017-12-06T00:54:53.560Z,87.46
2017-12-06T00:56:24.905Z,87.58
2017-12-06T00:57:48.229Z,87.66
2017-12-06T00:59:15.672Z,87.70
2017-12-06T01:00:43.020Z,87.47
2017-12-06T01:02:10.220Z,87.24
2017-12-06T01:03:37.484Z,87.30
2017-12-06T01:05:08.820Z,87.43
2017-12-06T01:06:32.183Z,87.51
2017-12-06T01:07:59.409Z,87.25
2017-12-06T01:09:30.603Z,87.53
2017-12-06T01:10:53.751Z,87.32
2017-12-06T01:12:21.085Z,87.52
2017-12-06T01:13:48.286Z,87.48
2017-12-06T01:15:15.654Z,87.68
2017-12-06T01:16:46.837Z,87.62
2017-12-06T01:18:14.139Z,87.56
2017-12-06T01:19:37.381Z,87.68
2017-12-06T01:21:04.592Z,87.74
2017-12-06T01:22:31.960Z,87.68
2017-12-06T01:23:59.272Z,87.72
2017-12-06T01:25:26.426Z,87.58
2017-12-06T01:26:53.626Z,87.51
2017-12-06T01:28:20.986Z,87.40
2017-12-06T01:29:48.462Z,87.15
2017-12-06T01:31:19.979Z,87.17
2017-12-06T01:32:43.106Z,87.17
2017-12-06T01:34:14.368Z,87.20
2017-12-06T01:35:41.537Z,86.98
2017-12-06T01:37:04.988Z,86.96
2017-12-06T01:38:32.129Z,86.91
2017-12-06T01:39:59.408Z,86.81
2017-12-06T01:41:30.748Z,86.43
2017-12-06T01:42:54.184Z,86.51
2017-12-06T01:44:21.553Z,86.74
2017-12-06T01:45:52.700Z,86.69
2017-12-06T01:47:20.024Z,86.69
2017-12-06T01:48:47.416Z,86.78
2017-12-06T01:50:10.581Z,86.69
2017-12-06T01:51:37.824Z,86.44
2017-12-06T01:53:09.068Z,86.45
2017-12-06T01:54:36.529Z,86.50
2017-12-06T01:55:59.770Z,86.45
2017-12-06T01:57:30.959Z,86.17
2017-12-06T01:58:54.072Z,86.29
2017-12-06T02:00:21.579Z,86.41
2017-12-06T02:01:48.846Z,86.53
2017-12-06T02:03:16.226Z,86.59
2017-12-06T02:04:47.668Z,86.35
2017-12-06T02:06:10.960Z,86.20
2017-12-06T02:07:38.190Z,85.96
2017-12-06T02:09:05.691Z,85.99
2017-12-06T02:10:36.866Z,85.89
2017-12-06T02:12:00.153Z,86.01
2017-12-06T02:13:27.357Z,85.84
2017-12-06T02:14:54.711Z,85.72
2017-12-06T02:16:21.917Z,85.82
2017-12-06T02:17:49.311Z,86.09
2017-12-06T02:19:20.628Z,86.20
2017-12-06T02:20:48.068Z,86.10
2017-12-06T02:22:11.341Z,86.44
2017-12-06T02:23:38.618Z,86.79
2017-12-06T02:25:06.005Z,87.21
2017-12-06T02:26:37.400Z,87.48
2017-12-06T02:28:00.703Z,88.11
2017-12-06T02:29:27.974Z,88.52
2017-12-06T02:30:59.155Z,88.92
2017-12-06T02:32:26.514Z,89.39
2017-12-06T02:33:49.959Z,89.96
2017-12-06T02:35:21.126Z,90.40
2017-12-06T02:36:44.615Z,90.53
2017-12-06T02:38:11.826Z,90.67
2017-12-06T02:39:39.262Z,90.70
2017-12-06T02:41:10.625Z,90.56
2017-12-06T02:42:37.938Z,90.70
2017-12-06T02:44:01.268Z,90.60
2017-12-06T02:45:28.403Z,90.59
2017-12-06T02:46:59.955Z,90.87
2017-12-06T02:48:23.294Z,91.13
2017-12-06T02:49:50.592Z,91.38
2017-12-06T02:51:17.881Z,91.48
2017-12-06T02:52:45.062Z,92.14
2017-12-06T02:54:16.826Z,92.56
2017-12-06T02:55:39.813Z,92.96
2017-12-06T02:57:07.125Z,93.06
2017-12-06T02:58:38.363Z,93.03
2017-12-06T03:00:01.668Z,93.38
2017-12-06T03:01:28.758Z,93.44
2017-12-06T03:02:56.162Z,93.80
2017-12-06T03:04:23.527Z,93.72
2017-12-06T03:05:51.031Z,94.19
2017-12-06T03:07:18.282Z,94.29
2017-12-06T03:08:45.646Z,94.48
2017-12-06T03:10:12.911Z,94.45
2017-12-06T03:11:40.108Z,94.32
2017-12-06T03:13:07.281Z,94.39
2017-12-06T03:14:34.428Z,94.34
2017-12-06T03:16:01.703Z,94.36
2017-12-06T03:17:32.832Z,94.14
2017-12-06T03:18:56.178Z,93.79
2017-12-06T03:20:23.545Z,93.85
2017-12-06T03:21:54.875Z,93.88
2017-12-06T03:23:18.230Z,93.39
2017-12-06T03:24:45.494Z,93.09
2017-12-06T03:26:12.884Z,93.10
2017-12-06T03:27:40.154Z,92.77
2017-12-06T03:29:07.450Z,92.46
2017-12-06T03:30:34.666Z,92.25
2017-12-06T03:32:01.929Z,92.06
2017-12-06T03:33:33.269Z,91.66
2017-12-06T03:34:56.534Z,91.51
2017-12-06T03:36:27.750Z,91.73
2017-12-06T03:37:50.848Z,91.44
2017-12-06T03:39:21.942Z,91.42
2017-12-06T03:40:45.227Z,91.03
2017-12-06T03:42:16.715Z,90.88
2017-12-06T03:43:39.772Z,90.92
2017-12-06T03:45:07.097Z,90.77
2017-12-06T03:46:38.121Z,90.61
2017-12-06T03:48:01.326Z,90.58
2017-12-06T03:49:28.126Z,90.76
2017-12-06T03:50:55.496Z,90.47
2017-12-06T03:52:22.800Z,90.37
2017-12-06T03:53:49.929Z,90.08
2017-12-06T03:55:17.305Z,90.55
2017-12-06T03:56:44.754Z,90.32
2017-12-06T03:58:15.977Z,90.35
2017-12-06T03:59:39.405Z,90.21
2017-12-06T04:01:06.638Z,90.20
2017-12-06T04:02:33.927Z,90.04
2017-12-06T04:04:01.166Z,90.13
2017-12-06T04:05:28.345Z,90.20
2017-12-06T04:06:55.761Z,90.12
2017-12-06T04:08:23.015Z,90.23
2017-12-06T04:09:50.402Z,90.36
2017-12-06T04:11:21.535Z,90.69
2017-12-06T04:12:44.698Z,90.82
2017-12-06T04:14:15.839Z,90.82
2017-12-06T04:15:39.227Z,90.83
2017-12-06T04:17:10.480Z,90.88
2017-12-06T04:18:33.838Z,90.96
2017-12-06T04:20:01.161Z,90.87
2017-12-06T04:21:32.389Z,90.76
2017-12-06T04:22:55.547Z,90.68
2017-12-06T04:24:27.009Z,90.72
2017-12-06T04:25:50.349Z,90.69
2017-12-06T04:27:21.733Z,90.49
2017-12-06T04:28:45.009Z,90.56
2017-12-06T04:30:12.449Z,90.58
2017-12-06T04:31:43.770Z,90.63
2017-12-06T04:33:06.848Z,90.80
2017-12-06T04:34:34.220Z,90.87
2017-12-06T04:36:01.540Z,91.06
2017-12-06T04:37:32.561Z,91.43
2017-12-06T04:38:55.945Z,91.56
2017-12-06T04:40:23.050Z,91.65
2017-12-06T04:41:50.347Z,92.17
2017-12-06T04:43:17.576Z,92.33
2017-12-06T04:44:44.769Z,92.50
2017-12-06T04:46:12.037Z,92.97
2017-12-06T04:47:39.260Z,93.44
2017-12-06T04:49:06.639Z,93.91
2017-12-06T04:50:33.916Z,94.21
2017-12-06T04:52:01.191Z,94.72
2017-12-06T04:53:32.343Z,94.60
2017-12-06T04:54:59.605Z,94.69
2017-12-06T04:56:22.783Z,94.59
2017-12-06T04:57:50.152Z,94.67
2017-12-06T04:59:17.253Z,94.64
2017-12-06T05:00:44.588Z,94.79
2017-12-06T05:02:11.899Z,94.95
2017-12-06T05:03:39.251Z,94.80
2017-12-06T05:05:10.619Z,94.93
2017-12-06T05:06:37.834Z,94.81
2017-12-06T05:08:01.050Z,94.79
2017-12-06T05:09:32.258Z,94.78
2017-12-06T05:10:59.601Z,94.75
2017-12-06T05:12:22.867Z,94.79
2017-12-06T05:13:54.394Z,94.85
2017-12-06T05:15:21.547Z,94.61
2017-12-06T05:16:45.050Z,94.73
2017-12-06T05:18:12.474Z,94.67
2017-12-06T05:19:39.849Z,94.45
2017-12-06T05:21:11.204Z,94.40
2017-12-06T05:22:34.373Z,94.21
2017-12-06T05:24:01.729Z,94.09
2017-12-06T05:25:28.839Z,94.01
2017-12-06T05:26:56.170Z,93.99
2017-12-06T05:28:23.289Z,94.00
2017-12-06T05:29:50.661Z,94.25
2017-12-06T05:31:18.034Z,94.51
2017-12-06T05:32:45.447Z,95.00
2017-12-06T05:34:12.850Z,95.44
2017-12-06T05:35:40.093Z,95.89
2017-12-06T05:37:07.277Z,96.25
2017-12-06T05:38:34.555Z,96.50
2017-12-06T05:40:05.727Z,96.89
2017-12-06T05:41:32.939Z,97.21
2017-12-06T05:42:56.121Z,97.29
2017-12-06T05:44:23.555Z,97.40
2017-12-06T05:45:54.633Z,97.57
2017-12-06T05:47:22.006Z,97.42
2017-12-06T05:48:45.362Z,97.45
2017-12-06T05:50:12.610Z,97.57
2017-12-06T05:51:43.883Z,97.78
2017-12-06T05:53:07.054Z,97.72
2017-12-06T05:54:34.249Z,97.71
2017-12-06T05:56:01.617Z,97.54
2017-12-06T05:57:32.731Z,97.44
2017-12-06T05:59:00.000Z,97.38
2017-12-06T06:00:23.003Z,97.46
2017-12-06T06:01:54.313Z,97.50
2017-12-06T06:03:21.661Z,97.38
2017-12-06T06:04:44.970Z,97.15
2017-12-06T06:06:12.242Z,97.12
2017-12-06T06:07:39.531Z,97.27
2017-12-06T06:09:10.832Z,97.18
2017-12-06T06:10:38.095Z,97.08
2017-12-06T06:12:05.443Z,96.85
2017-12-06T06:13:28.503Z,96.64
2017-12-06T06:14:55.792Z,96.78
2017-12-06T06:16:26.793Z,96.67
2017-12-06T06:17:54.084Z,96.50
2017-12-06T06:19:17.175Z,96.38
2017-12-06T06:20:48.512Z,96.32
2017-12-06T06:22:15.555Z,96.10
2017-12-06T06:23:38.825Z,96.10
2017-12-06T06:25:06.050Z,95.93
2017-12-06T06:26:37.352Z,95.90
2017-12-06T06:28:00.661Z,96.20
2017-12-06T06:29:28.121Z,96.37
2017-12-06T06:30:55.514Z,96.36
2017-12-06T06:32:22.788Z,96.15
2017-12-06T06:33:54.020Z,96.27
2017-12-06T06:35:17.348Z,96.34
2017-12-06T06:36:48.868Z,96.42
2017-12-06T06:38:15.866Z,96.57
2017-12-06T06:39:39.472Z,96.63
2017-12-06T06:41:06.711Z,96.81
2017-12-06T06:42:38.091Z,96.83
2017-12-06T06:44:01.290Z,96.89
2017-12-06T06:45:28.470Z,96.81
2017-12-06T06:46:55.828Z,96.67
2017-12-06T06:48:23.164Z,96.83
2017-12-06T06:49:50.438Z,96.76
2017-12-06T06:51:17.625Z,96.85
2017-12-06T06:52:46.377Z,96.88
2017-12-06T06:54:12.257Z,96.99
2017-12-06T06:55:39.342Z,97.21
2017-12-06T06:57:06.685Z,97.23
2017-12-06T06:58:33.960Z,97.13
2017-12-06T07:00:01.155Z,97.24
2017-12-06T07:01:28.246Z,97.54
2017-12-06T07:02:59.821Z,97.72
2017-12-06T07:04:23.131Z,97.77
2017-12-06T07:05:50.531Z,97.72
2017-12-06T07:07:17.752Z,97.48
2017-12-06T07:08:45.084Z,97.57
2017-12-06T07:10:16.491Z,97.64
2017-12-06T07:11:43.781Z,97.67
2017-12-06T07:13:11.146Z,97.58
2017-12-06T07:14:38.456Z,97.46
2017-12-06T07:16:05.718Z,97.39
2017-12-06T07:17:29.021Z,97.16
2017-12-06T07:19:00.359Z,97.35
2017-12-06T07:20:27.808Z,97.36
2017-12-06T07:21:51.163Z,97.42
2017-12-06T07:23:18.468Z,97.35
2017-12-06T07:24:45.827Z,97.48
2017-12-06T07:26:13.158Z,97.06
2017-12-06T07:27:40.453Z,96.95
2017-12-06T07:29:07.859Z,96.90
2017-12-06T07:30:34.958Z,96.75
2017-12-06T07:32:06.152Z,96.54
2017-12-06T07:33:33.507Z,96.67
2017-12-06T07:34:56.736Z,96.58
2017-12-06T07:36:24.040Z,96.45
2017-12-06T07:37:51.274Z,96.17
2017-12-06T07:39:22.614Z,96.07
2017-12-06T07:40:45.925Z,96.16
2017-12-06T07:42:13.304Z,96.24
2017-12-06T07:43:40.580Z,96.13
2017-12-06T07:45:07.796Z,96.01
2017-12-06T07:46:35.257Z,95.97
2017-12-06T07:48:02.407Z,96.13
2017-12-06T07:49:29.664Z,95.98
2017-12-06T07:50:57.118Z,96.03
2017-12-06T07:52:24.259Z,96.09
2017-12-06T07:53:51.514Z,96.04
2017-12-06T07:55:18.930Z,95.82
2017-12-06T07:56:46.294Z,95.72
2017-12-06T07:58:13.603Z,95.69
2017-12-06T07:59:40.946Z,95.72
2017-12-06T08:01:12.069Z,95.47
2017-12-06T08:02:35.458Z,95.35
2017-12-06T08:04:06.683Z,95.12
2017-12-06T08:05:29.871Z,94.77
2017-12-06T08:07:01.430Z,94.51
2017-12-06T08:08:28.794Z,94.50
2017-12-06T08:09:51.817Z,94.52
2017-12-06T08:11:19.039Z,94.25
2017-12-06T08:12:46.261Z,94.29
2017-12-06T08:14:13.599Z,94.50
2017-12-06T08:15:40.750Z,94.19
2017-12-06T08:17:08.145Z,94.15
2017-12-06T08:18:39.313Z,93.99
2017-12-06T08:20:02.722Z,94.01
2017-12-06T08:21:29.921Z,93.74
2017-12-06T08:23:01.180Z,93.70
2017-12-06T08:24:28.570Z,93.31
2017-12-06T08:25:51.775Z,93.43
2017-12-06T08:27:23.065Z,93.50
2017-12-06T08:28:50.260Z,93.27
2017-12-06T08:30:13.491Z,93.36
2017-12-06T08:31:44.610Z,93.47
2017-12-06T08:33:08.021Z,93.32
2017-12-06T08:34:35.318Z,93.24
2017-12-06T08:36:02.283Z,93.30
2017-12-06T08:37:33.533Z,93.36
2017-12-06T08:38:56.777Z,93.22
2017-12-06T08:40:24.110Z,93.34
2017-12-06T08:41:51.299Z,93.39
2017-12-06T08:43:18.534Z,93.71
2017-12-06T08:44:45.830Z,93.52
2017-12-06T08:46:13.128Z,93.27
2017-12-06T08:47:40.448Z,93.14
2017-12-06T08:49:07.823Z,93.16
2017-12-06T08:50:34.986Z,92.78
2017-12-06T08:52:02.330Z,92.64
2017-12-06T08:53:29.549Z,92.74
2017-12-06T08:54:56.740Z,92.48
2017-12-06T08:56:24.027Z,92.41
2017-12-06T08:57:55.146Z,92.66
2017-12-06T08:59:18.539Z,92.51
2017-12-06T09:00:49.836Z,92.47
2017-12-06T09:02:17.083Z,92.19
2017-12-06T09:03:44.315Z,91.92
2017-12-06T09:05:11.559Z,91.96
2017-12-06T09:06:34.759Z,91.95
2017-12-06T09:08:01.776Z,91.79
2017-12-06T09:09:29.033Z,91.82
2017-12-06T09:10:56.396Z,91.66
2017-12-06T09:12:23.864Z,91.63
2017-12-06T09:13:51.133Z,91.53
2017-12-06T09:15:18.451Z,91.27
2017-12-06T09:16:49.642Z,91.25
2017-12-06T09:18:12.990Z,91.25
2017-12-06T09:19:40.479Z,91.22
2017-12-06T09:21:11.765Z,91.17
2017-12-06T09:22:35.175Z,90.99
2017-12-06T09:24:02.430Z,90.70
2017-12-06T09:25:29.642Z,90.68
2017-12-06T09:26:56.775Z,90.35
2017-12-06T09:28:24.172Z,90.17
2017-12-06T09:29:51.614Z,90.06
2017-12-06T09:31:18.953Z,89.97
2017-12-06T09:32:50.386Z,89.97
2017-12-06T09:34:13.492Z,89.69
2017-12-06T09:35:40.870Z,89.50
2017-12-06T09:37:12.142Z,89.66
2017-12-06T09:38:35.563Z,89.69
2017-12-06T09:40:02.850Z,89.75
2017-12-06T09:41:29.997Z,89.23
2017-12-06T09:43:01.245Z,89.05
2017-12-06T09:44:28.669Z,88.70
2017-12-06T09:45:55.957Z,89.17
2017-12-06T09:47:23.194Z,88.91
2017-12-06T09:48:46.587Z,88.63
2017-12-06T09:50:13.996Z,88.62
2017-12-06T09:51:45.228Z,88.89
2017-12-06T09:53:08.437Z,88.70
2017-12-06T09:54:35.771Z,88.47
2017-12-06T09:56:03.054Z,88.50
2017-12-06T09:57:30.146Z,88.61
2017-12-06T09:58:57.596Z,88.41
2017-12-06T10:00:24.806Z,88.43
2017-12-06T10:01:56.242Z,88.66
2017-12-06T10:03:23.521Z,88.38
2017-12-06T10:04:46.754Z,88.42
2017-12-06T10:06:14.314Z,88.38
2017-12-06T10:07:45.536Z,88.33
2017-12-06T10:09:08.898Z,88.36
2017-12-06T10:10:36.188Z,88.55
2017-12-06T10:12:11.347Z,88.47
2017-12-06T10:13:30.669Z,88.34
2017-12-06T10:15:01.723Z,88.49
2017-12-06T10:16:25.072Z,88.50
2017-12-06T10:17:56.525Z,88.73
2017-12-06T10:19:19.807Z,88.62
2017-12-06T10:20:47.023Z,88.50
2017-12-06T10:22:18.198Z,88.84
2017-12-06T10:23:45.546Z,88.97
2017-12-06T10:25:08.844Z,89.12
2017-12-06T10:26:36.218Z,89.33
2017-12-06T10:28:07.536Z,89.67
2017-12-06T10:29:30.799Z,89.57
2017-12-06T10:31:02.237Z,89.69
2017-12-06T10:32:29.604Z,89.55
2017-12-06T10:33:53.133Z,89.59
2017-12-06T10:35:20.449Z,89.58
2017-12-06T10:36:51.800Z,89.54
2017-12-06T10:38:15.087Z,89.78
2017-12-06T10:39:46.413Z,89.34
2017-12-06T10:41:09.684Z,89.17
2017-12-06T10:42:37.127Z,89.28
2017-12-06T10:44:08.241Z,89.24
2017-12-06T10:45:31.442Z,89.44
2017-12-06T10:46:58.451Z,89.52
2017-12-06T10:48:25.728Z,89.95
2017-12-06T10:49:52.913Z,89.72
2017-12-06T10:51:20.258Z,89.84
2017-12-06T10:52:47.472Z,89.93
2017-12-06T10:54:18.775Z,89.89
2017-12-06T10:55:42.134Z,89.72
2017-12-06T10:57:09.469Z,89.41
2017-12-06T10:58:36.636Z,89.15
2017-12-06T11:00:03.855Z,88.84
2017-12-06T11:01:31.084Z,89.24
2017-12-06T11:02:58.496Z,89.03
2017-12-06T11:04:25.516Z,89.69
2017-12-06T11:05:56.968Z,89.70
2017-12-06T11:07:20.313Z,89.35
2017-12-06T11:08:51.689Z,89.50
2017-12-06T11:10:14.752Z,89.31
2017-12-06T11:11:42.097Z,88.90
2017-12-06T11:13:13.281Z,88.51
2017-12-06T11:14:36.520Z,88.53
2017-12-06T11:16:03.896Z,88.61
2017-12-06T11:17:35.048Z,88.72
2017-12-06T11:18:58.214Z,88.35
2017-12-06T11:20:29.514Z,88.28
2017-12-06T11:21:56.836Z,88.17
2017-12-06T11:23:20.240Z,87.81
2017-12-06T11:24:47.543Z,87.86
2017-12-06T11:26:18.843Z,87.87
2017-12-06T11:27:42.079Z,87.64
2017-12-06T11:29:09.426Z,87.86
2017-12-06T11:30:36.834Z,88.17
2017-12-06T11:32:08.134Z,88.26
2017-12-06T11:33:35.156Z,88.37
2017-12-06T11:35:02.293Z,88.08
2017-12-06T11:36:29.629Z,88.21
2017-12-06T11:37:52.767Z,88.02
2017-12-06T11:39:20.036Z,88.16
2017-12-06T11:40:47.376Z,88.17
2017-12-06T11:42:14.737Z,87.86
2017-12-06T11:43:41.967Z,88.29
2017-12-06T11:45:09.315Z,87.94
2017-12-06T11:46:40.605Z,88.33
2017-12-06T11:48:03.820Z,87.81
2017-12-06T11:49:31.189Z,87.74
2017-12-06T11:50:58.190Z,88.23
2017-12-06T11:52:25.474Z,88.45
2017-12-06T11:53:52.860Z,88.29
2017-12-06T11:55:20.309Z,88.13
2017-12-06T11:56:51.553Z,88.42
2017-12-06T11:58:15.020Z,88.37
2017-12-06T11:59:42.221Z,88.31
2017-12-06T12:01:09.632Z,88.43
2017-12-06T12:02:36.903Z,88.70
2017-12-06T12:04:04.266Z,88.52
2017-12-06T12:05:31.732Z,88.55
2017-12-06T12:06:58.929Z,88.67
2017-12-06T12:08:26.232Z,88.53
2017-12-06T12:09:57.696Z,88.71
2017-12-06T12:11:20.819Z,88.73
2017-12-06T12:12:48.207Z,88.62
2017-12-06T12:14:15.633Z,88.72
2017-12-06T12:15:43.029Z,88.94
2017-12-06T12:17:10.265Z,88.56
2017-12-06T12:18:41.726Z,88.94
2017-12-06T12:20:05.063Z,88.90
2017-12-06T12:21:32.345Z,88.83
2017-12-06T12:22:59.716Z,88.84
2017-12-06T12:24:27.004Z,88.72
2017-12-06T12:25:58.309Z,88.51
2017-12-06T12:27:21.638Z,88.54
2017-12-06T12:28:48.625Z,88.48
2017-12-06T12:30:20.041Z,88.36
2017-12-06T12:31:47.577Z,88.39
2017-12-06T12:33:10.884Z,88.55
2017-12-06T12:34:38.168Z,88.41
2017-12-06T12:36:05.476Z,88.68
2017-12-06T12:37:32.635Z,88.67
2017-12-06T12:38:59.868Z,88.39
2017-12-06T12:40:31.011Z,88.23
2017-12-06T12:41:54.478Z,88.59
2017-12-06T12:43:25.908Z,88.51
2017-12-06T12:44:49.254Z,88.23
2017-12-06T12:46:16.580Z,88.41
2017-12-06T12:47:43.884Z,88.42
2017-12-06T12:49:11.190Z,88.36
2017-12-06T12:50:38.567Z,88.61
2017-12-06T12:52:06.001Z,88.58
2017-12-06T12:53:33.108Z,88.41
2017-12-06T12:55:00.166Z,88.61
2017-12-06T12:56:27.616Z,88.60
2017-12-06T12:57:54.837Z,88.71
2017-12-06T12:59:26.208Z,88.55
2017-12-06T13:00:49.744Z,88.78
2017-12-06T13:02:17.211Z,88.56
2017-12-06T13:03:44.612Z,88.54
2017-12-06T13:05:11.939Z,88.51
2017-12-06T13:06:39.392Z,88.55
2017-12-06T13:08:10.698Z,88.36
2017-12-06T13:09:34.048Z,88.30
2017-12-06T13:11:01.272Z,88.25
2017-12-06T13:12:28.470Z,88.44
2017-12-06T13:14:00.876Z,88.09
2017-12-06T13:15:23.044Z,88.25
2017-12-06T13:16:55.367Z,87.92
2017-12-06T13:18:17.677Z,87.94
2017-12-06T13:19:45.184Z,88.02
2017-12-06T13:21:16.429Z,87.65
2017-12-06T13:22:39.864Z,87.74
2017-12-06T13:24:07.075Z,87.65
2017-12-06T13:25:34.351Z,87.76
2017-12-06T13:27:01.611Z,87.76
2017-12-06T13:28:32.560Z,87.85
2017-12-06T13:29:55.751Z,87.45
2017-12-06T13:31:27.118Z,87.44
2017-12-06T13:34:17.640Z,87.45
2017-12-06T13:35:49.171Z,87.62
2017-12-06T13:37:12.501Z,87.61
2017-12-06T13:38:39.763Z,87.55
2017-12-06T13:40:11.167Z,87.31
2017-12-06T13:41:34.365Z,87.20
2017-12-06T13:43:01.697Z,87.37
2017-12-06T13:44:28.829Z,87.37
2017-12-06T13:45:56.301Z,87.25
2017-12-06T13:47:23.606Z,87.04
2017-12-06T13:48:51.078Z,87.30
2017-12-06T13:50:18.446Z,87.05
2017-12-06T13:51:45.683Z,86.89
2017-12-06T13:53:16.993Z,87.26
2017-12-06T13:54:40.272Z,87.08
2017-12-06T13:56:11.672Z,86.72
2017-12-06T13:57:35.058Z,86.77
2017-12-06T13:59:06.407Z,86.78
2017-12-06T14:00:29.516Z,86.66
2017-12-06T14:01:56.800Z,86.67
2017-12-06T14:03:28.234Z,86.83
2017-12-06T14:04:51.648Z,87.07
2017-12-06T14:06:22.844Z,86.90
2017-12-06T14:07:46.075Z,86.67
2017-12-06T14:09:17.508Z,86.72
2017-12-06T14:10:44.656Z,86.48
2017-12-06T14:12:11.937Z,86.80
2017-12-06T14:13:35.154Z,86.52
2017-12-06T14:15:02.507Z,86.67
2017-12-06T14:16:29.820Z,86.58
2017-12-06T14:17:56.974Z,86.60
2017-12-06T14:19:24.308Z,86.61
2017-12-06T14:20:55.642Z,86.64
2017-12-06T14:22:19.119Z,86.71
2017-12-06T14:23:50.418Z,86.31
2017-12-06T14:25:13.642Z,86.32
2017-12-06T14:26:44.999Z,85.88
2017-12-06T14:28:08.103Z,85.99
2017-12-06T14:29:35.519Z,86.26
2017-12-06T14:31:06.708Z,86.24
2017-12-06T14:32:29.834Z,86.12
2017-12-06T14:33:57.162Z,86.13
2017-12-06T14:35:24.688Z,86.03
2017-12-06T14:36:52.072Z,86.19
2017-12-06T14:38:19.369Z,86.36
2017-12-06T14:39:50.793Z,86.36
2017-12-06T14:41:14.101Z,86.24
2017-12-06T14:42:41.278Z,86.48
2017-12-06T14:44:08.558Z,86.19
2017-12-06T14:45:35.655Z,86.18
2017-12-06T14:47:03.075Z,85.90
2017-12-06T14:48:30.414Z,86.00
2017-12-06T14:49:57.894Z,86.04
2017-12-06T14:51:25.100Z,85.97
2017-12-06T14:52:52.468Z,86.20
2017-12-06T14:54:23.736Z,85.96
2017-12-06T14:55:50.946Z,85.90
2017-12-06T14:57:14.322Z,85.61
2017-12-06T14:58:45.444Z,85.72
2017-12-06T15:00:12.961Z,85.65
2017-12-06T15:01:36.282Z,85.71
2017-12-06T15:03:03.481Z,85.96
2017-12-06T15:04:30.660Z,85.92
2017-12-06T15:05:57.910Z,85.57
2017-12-06T15:07:25.300Z,85.69
2017-12-06T15:08:56.796Z,85.50
2017-12-06T15:10:20.054Z,85.55
2017-12-06T15:11:51.380Z,85.66
2017-12-06T15:13:18.781Z,85.73
2017-12-06T15:14:45.985Z,85.75
2017-12-06T15:16:09.235Z,85.80
2017-12-06T15:17:36.729Z,85.87
2017-12-06T15:19:07.977Z,85.80
2017-12-06T15:20:31.188Z,85.76
2017-12-06T15:21:58.100Z,85.78
2017-12-06T15:23:29.357Z,85.76
2017-12-06T15:24:56.748Z,85.99
2017-12-06T15:26:20.005Z,85.66
2017-12-06T15:27:51.233Z,85.57
2017-12-06T15:29:14.624Z,85.77
2017-12-06T15:30:46.030Z,85.97
2017-12-06T15:32:13.275Z,85.90
2017-12-06T15:33:36.640Z,86.07
2017-12-06T15:35:07.894Z,85.97
2017-12-06T15:36:35.133Z,86.27
2017-12-06T15:38:01.952Z,86.13
2017-12-06T15:39:29.560Z,85.96
2017-12-06T15:40:52.934Z,85.56
2017-12-06T15:42:20.369Z,85.67
2017-12-06T15:43:51.879Z,85.86
2017-12-06T15:45:14.921Z,85.84
2017-12-06T15:46:42.176Z,85.65
2017-12-06T15:48:09.489Z,85.69
2017-12-06T15:49:36.859Z,85.94
2017-12-06T15:51:04.168Z,85.89
2017-12-06T15:52:35.235Z,85.95
2017-12-06T15:54:02.359Z,85.74
2017-12-06T15:55:29.760Z,85.86
2017-12-06T15:56:53.229Z,85.74
2017-12-06T15:58:24.708Z,85.67
2017-12-06T15:59:52.079Z,85.74
2017-12-06T16:01:19.430Z,86.00
2017-12-06T16:02:42.691Z,85.84
2017-12-06T16:04:13.823Z,86.02
2017-12-06T16:05:41.031Z,85.82
2017-12-06T16:07:08.407Z,85.90
2017-12-06T16:08:35.781Z,85.76
2017-12-06T16:09:58.962Z,85.99
2017-12-06T16:11:26.367Z,85.89
2017-12-06T16:12:53.572Z,85.96
2017-12-06T16:14:24.972Z,85.71
2017-12-06T16:15:52.190Z,85.99
2017-12-06T16:17:15.750Z,85.89
2017-12-06T16:18:43.078Z,85.96
2017-12-06T16:20:10.463Z,86.33
2017-12-06T16:21:41.480Z,86.27
2017-12-06T16:23:04.781Z,86.22
2017-12-06T16:24:32.212Z,86.24
2017-12-06T16:26:03.336Z,86.19
2017-12-06T16:27:26.621Z,86.20
2017-12-06T16:28:54.047Z,86.13
2017-12-06T16:30:21.276Z,86.04
2017-12-06T16:31:52.629Z,86.12
2017-12-06T16:33:15.846Z,86.20
2017-12-06T16:34:47.164Z,86.14
2017-12-06T16:36:14.715Z,86.15
2017-12-06T16:37:37.893Z,86.21
2017-12-06T16:39:05.085Z,85.96
2017-12-06T16:40:32.445Z,86.05
2017-12-06T16:41:59.795Z,86.12
2017-12-06T16:43:27.140Z,85.97
2017-12-06T16:44:54.522Z,86.12
2017-12-06T16:46:21.884Z,85.78
2017-12-06T16:47:49.087Z,85.63
2017-12-06T16:49:20.461Z,85.85
2017-12-06T16:50:43.628Z,85.96
2017-12-06T16:52:14.860Z,86.00
2017-12-06T16:53:42.151Z,85.98
2017-12-06T16:55:05.402Z,86.14
2017-12-06T16:56:32.704Z,86.16
2017-12-06T16:58:00.022Z,86.19
2017-12-06T16:59:27.444Z,86.09
2017-12-06T17:00:54.726Z,85.74
2017-12-06T17:02:22.120Z,85.96
2017-12-06T17:03:49.446Z,86.01
2017-12-06T17:05:20.701Z,86.01
2017-12-06T17:06:44.076Z,85.72
2017-12-06T17:08:11.184Z,85.76
2017-12-06T17:09:42.660Z,85.83
2017-12-06T17:11:09.747Z,85.96
2017-12-06T17:12:33.216Z,85.89
2017-12-06T17:14:00.513Z,85.40
2017-12-06T17:15:31.695Z,85.56
2017-12-06T17:16:55.110Z,85.59
2017-12-06T17:18:22.373Z,85.66
2017-12-06T17:19:53.688Z,85.57
2017-12-06T17:21:21.203Z,85.84
2017-12-06T17:22:44.487Z,85.62
2017-12-06T17:24:15.772Z,85.66
2017-12-06T17:25:38.921Z,85.51
2017-12-06T17:27:06.222Z,85.59
2017-12-06T17:28:33.391Z,85.59
2017-12-06T17:30:04.565Z,85.33
2017-12-06T17:31:31.902Z,85.49
2017-12-06T17:32:55.238Z,85.53
2017-12-06T17:34:22.482Z,85.55
2017-12-06T17:35:49.916Z,85.64
2017-12-06T17:37:17.318Z,85.78
2017-12-06T17:38:48.799Z,85.75
2017-12-06T17:40:16.084Z,85.45
2017-12-06T17:41:43.468Z,85.43
2017-12-06T17:43:10.748Z,85.23
2017-12-06T17:44:33.829Z,84.93
2017-12-06T17:46:01.116Z,84.81
2017-12-06T17:47:32.218Z,84.91
2017-12-06T17:48:55.479Z,84.52
2017-12-06T17:50:26.567Z,84.86
2017-12-06T17:51:49.789Z,84.89
2017-12-06T17:53:20.971Z,84.73
2017-12-06T17:54:44.420Z,84.84
2017-12-06T17:56:11.595Z,84.95
2017-12-06T17:57:42.804Z,84.93
2017-12-06T17:59:09.847Z,84.88
2017-12-06T18:00:36.910Z,84.55
2017-12-06T18:02:00.144Z,84.42
2017-12-06T18:03:27.525Z,84.80
2017-12-06T18:04:54.869Z,84.89
2017-12-06T18:06:22.118Z,84.59
2017-12-06T18:07:49.468Z,84.64
2017-12-06T18:09:21.018Z,84.60
2017-12-06T18:10:44.106Z,84.56
2017-12-06T18:12:11.508Z,84.92
2017-12-06T18:13:42.433Z,84.75
2017-12-06T18:15:09.670Z,84.52
2017-12-06T18:16:36.950Z,84.35
2017-12-06T18:17:59.793Z,84.18
2017-12-06T18:19:27.034Z,84.33
2017-12-06T18:20:54.246Z,84.24
2017-12-06T18:22:21.505Z,84.49
2017-12-06T18:23:48.775Z,84.54
2017-12-06T18:25:16.145Z,84.30
2017-12-06T18:26:43.456Z,84.29
2017-12-06T18:28:10.910Z,84.47
2017-12-06T18:29:38.213Z,84.44
2017-12-06T18:31:09.600Z,84.09
2017-12-06T18:32:36.835Z,84.30
2017-12-06T18:33:59.986Z,84.38
2017-12-06T18:35:27.257Z,84.56
2017-12-06T18:36:58.563Z,84.22
2017-12-06T18:38:25.828Z,84.25
2017-12-06T18:39:49.262Z,84.48
2017-12-06T18:41:20.612Z,84.38
2017-12-06T18:42:44.006Z,84.16
2017-12-06T18:44:11.095Z,84.04
2017-12-06T18:45:38.316Z,84.20